createdAt,value
2019-04-05T00:00:10.056Z,953.48
2019-04-05T00:01:09.936Z,953.45
2019-04-05T00:02:09.889Z,953.50
2019-04-05T00:03:09.869Z,953.50
2019-04-05T00:04:09.773Z,953.48
2019-04-05T00:05:09.714Z,953.52
2019-04-05T00:06:09.658Z,953.51
2019-04-05T00:07:09.602Z,953.53
2019-04-05T00:08:09.580Z,953.51
2019-04-05T00:09:09.524Z,953.54
2019-04-05T00:10:09.435Z,953.53
2019-04-05T00:11:09.378Z,953.50
2019-04-05T00:12:09.324Z,953.49
2019-04-05T00:13:09.300Z,953.49
2019-04-05T00:14:09.215Z,953.48
2019-04-05T00:15:15.736Z,953.49
2019-04-05T00:16:09.099Z,953.46
2019-04-05T00:17:09.071Z,953.48
2019-04-05T00:18:08.986Z,953.53
2019-04-05T00:19:08.930Z,953.52
2019-04-05T00:20:08.878Z,953.50
2019-04-05T00:21:08.821Z,953.51
2019-04-05T00:22:08.795Z,953.52
2019-04-05T00:23:08.716Z,953.50
2019-04-05T00:24:08.654Z,953.50
2019-04-05T00:25:08.598Z,953.50
2019-04-05T00:26:08.541Z,953.46
2019-04-05T00:27:08.527Z,953.41
2019-04-05T00:28:08.430Z,953.42
2019-04-05T00:29:08.374Z,953.37
2019-04-05T00:30:08.316Z,953.34
2019-04-05T00:31:08.263Z,953.32
2019-04-05T00:32:08.245Z,953.32
2019-04-05T00:33:08.152Z,953.30
2019-04-05T00:34:08.094Z,953.30
2019-04-05T00:35:08.036Z,953.29
2019-04-05T00:36:07.982Z,953.32
2019-04-05T00:37:07.950Z,953.31
2019-04-05T00:38:07.870Z,953.28
2019-04-05T00:39:07.848Z,953.27
2019-04-05T00:40:07.759Z,953.28
2019-04-05T00:41:07.705Z,953.22
2019-04-05T00:42:07.647Z,953.25
2019-04-05T00:43:07.628Z,953.26
2019-04-05T00:44:07.535Z,953.23
2019-04-05T00:45:07.521Z,953.27
2019-04-05T00:46:07.422Z,953.23
2019-04-05T00:47:07.389Z,953.25
2019-04-05T00:48:07.345Z,953.26
2019-04-05T00:49:07.254Z,953.29
2019-04-05T00:50:07.198Z,953.29
2019-04-05T00:51:07.143Z,953.30
2019-04-05T00:52:07.118Z,953.31
2019-04-05T00:53:07.035Z,953.31
2019-04-05T00:54:06.974Z,953.29
2019-04-05T00:55:06.960Z,953.27
2019-04-05T00:56:06.866Z,953.30
2019-04-05T00:57:06.807Z,953.31
2019-04-05T00:58:06.751Z,953.33
2019-04-05T00:59:06.729Z,953.31
2019-04-05T01:00:06.640Z,953.33
2019-04-05T01:01:06.589Z,953.34
2019-04-05T01:02:06.528Z,953.34
2019-04-05T01:03:06.472Z,953.34
2019-04-05T01:04:06.446Z,953.34
2019-04-05T01:05:06.365Z,953.32
2019-04-05T01:06:06.305Z,953.30
2019-04-05T01:07:06.282Z,953.31
2019-04-05T01:08:06.223Z,953.34
2019-04-05T01:09:06.138Z,953.30
2019-04-05T01:10:06.079Z,953.32
2019-04-05T01:11:06.057Z,953.34
2019-04-05T01:12:05.965Z,953.31
2019-04-05T01:13:05.919Z,953.31
2019-04-05T01:14:05.888Z,953.29
2019-04-05T01:15:05.799Z,953.28
2019-04-05T01:16:05.741Z,953.27
2019-04-05T01:17:05.688Z,953.27
2019-04-05T01:18:05.664Z,953.26
2019-04-05T01:19:05.578Z,953.27
2019-04-05T01:20:05.518Z,953.24
2019-04-05T01:21:05.463Z,953.23
2019-04-05T01:22:05.447Z,953.25
2019-04-05T01:23:05.352Z,953.27
2019-04-05T01:24:05.296Z,953.23
2019-04-05T01:25:05.240Z,953.25
2019-04-05T01:26:05.184Z,953.23
2019-04-05T01:27:05.165Z,953.25
2019-04-05T01:28:05.072Z,953.26
2019-04-05T01:29:05.019Z,953.30
2019-04-05T01:30:05.033Z,953.29
2019-04-05T01:31:04.904Z,953.35
2019-04-05T01:32:04.878Z,953.34
2019-04-05T01:33:04.801Z,953.35
2019-04-05T01:34:05.642Z,953.36
2019-04-05T01:35:04.678Z,953.33
2019-04-05T01:36:04.622Z,953.32
2019-04-05T01:37:04.571Z,953.32
2019-04-05T01:38:04.514Z,953.33
2019-04-05T01:39:04.497Z,953.33
2019-04-05T01:40:04.400Z,953.34
2019-04-05T01:41:04.345Z,953.30
2019-04-05T01:42:04.288Z,953.36
2019-04-05T01:43:04.232Z,953.37
2019-04-05T01:44:04.213Z,953.38
2019-04-05T01:45:04.122Z,953.34
2019-04-05T01:46:04.062Z,953.37
2019-04-05T01:47:04.006Z,953.36
2019-04-05T01:48:03.950Z,953.35
2019-04-05T01:49:03.930Z,953.35
2019-04-05T01:50:03.874Z,953.36
2019-04-05T01:51:03.781Z,953.34
2019-04-05T01:52:03.725Z,953.38
2019-04-05T01:53:03.669Z,953.32
2019-04-05T01:54:03.615Z,953.32
2019-04-05T01:55:03.727Z,953.30
2019-04-05T01:56:03.505Z,953.31
2019-04-05T01:57:03.454Z,953.35
2019-04-05T01:58:03.391Z,953.34
2019-04-05T01:59:03.375Z,953.35
2019-04-05T02:00:03.277Z,953.33
2019-04-05T02:01:03.220Z,953.35
2019-04-05T02:02:03.166Z,953.40
2019-04-05T02:03:03.115Z,953.38
2019-04-05T02:04:03.086Z,953.43
2019-04-05T02:05:02.996Z,953.43
2019-04-05T02:06:02.941Z,953.41
2019-04-05T02:07:02.919Z,953.45
2019-04-05T02:08:02.829Z,953.46
2019-04-05T02:09:02.776Z,953.45
2019-04-05T02:10:02.722Z,953.42
2019-04-05T02:11:02.693Z,953.43
2019-04-05T02:12:02.603Z,953.41
2019-04-05T02:13:02.547Z,953.40
2019-04-05T02:14:02.491Z,953.39
2019-04-05T02:15:02.466Z,953.46
2019-04-05T02:16:06.494Z,953.43
2019-04-05T02:17:02.335Z,953.46
2019-04-05T02:18:02.269Z,953.42
2019-04-05T02:19:02.209Z,953.44
2019-04-05T02:20:02.195Z,953.40
2019-04-05T02:21:02.098Z,953.40
2019-04-05T02:22:02.048Z,953.34
2019-04-05T02:23:01.990Z,953.34
2019-04-05T02:24:01.931Z,953.32
2019-04-05T02:25:01.911Z,953.36
2019-04-05T02:26:01.818Z,953.34
2019-04-05T02:27:01.760Z,953.36
2019-04-05T02:28:01.709Z,953.37
2019-04-05T02:29:01.678Z,953.33
2019-04-05T02:30:01.603Z,953.32
2019-04-05T02:31:01.536Z,953.34
2019-04-05T02:32:01.484Z,953.33
2019-04-05T02:33:01.455Z,953.37
2019-04-05T02:34:01.373Z,953.37
2019-04-05T02:35:01.344Z,953.41
2019-04-05T02:36:01.257Z,953.43
2019-04-05T02:37:01.202Z,953.43
2019-04-05T02:38:01.228Z,953.47
2019-04-05T02:39:01.088Z,953.42
2019-04-05T02:40:01.074Z,953.44
2019-04-05T02:41:01.011Z,953.43
2019-04-05T02:42:00.959Z,953.46
2019-04-05T02:43:00.862Z,953.45
2019-04-05T02:44:00.810Z,953.49
2019-04-05T02:45:00.791Z,953.51
2019-04-05T02:46:00.694Z,953.54
2019-04-05T02:47:00.638Z,953.57
2019-04-05T02:48:00.590Z,953.56
2019-04-05T02:49:00.559Z,953.55
2019-04-05T02:50:00.471Z,953.52
2019-04-05T02:51:00.417Z,953.44
2019-04-05T02:52:00.374Z,953.48
2019-04-05T02:53:00.302Z,953.47
2019-04-05T02:54:00.275Z,953.51
2019-04-05T02:55:00.308Z,953.55
2019-04-05T02:56:03.027Z,953.56
2019-04-05T02:57:00.086Z,953.53
2019-04-05T02:58:00.020Z,953.55
2019-04-05T02:58:59.965Z,953.55
2019-04-05T02:59:59.937Z,953.54
2019-04-05T03:00:59.855Z,953.59
2019-04-05T03:01:59.795Z,953.58
2019-04-05T03:02:59.779Z,953.53
2019-04-05T03:03:59.684Z,953.54
2019-04-05T03:04:59.624Z,953.53
2019-04-05T03:05:59.572Z,953.52
2019-04-05T03:06:59.516Z,953.50
2019-04-05T03:07:59.503Z,953.53
2019-04-05T03:08:59.401Z,953.52
2019-04-05T03:09:59.350Z,953.45
2019-04-05T03:10:59.298Z,953.46
2019-04-05T03:11:59.234Z,953.44
2019-04-05T03:12:59.209Z,953.43
2019-04-05T03:13:59.123Z,953.47
2019-04-05T03:14:59.104Z,953.50
2019-04-05T03:15:59.010Z,953.51
2019-04-05T03:16:58.951Z,953.51
2019-04-05T03:17:58.895Z,953.50
2019-04-05T03:18:58.869Z,953.54
2019-04-05T03:19:58.784Z,953.59
2019-04-05T03:20:58.727Z,953.65
2019-04-05T03:21:58.675Z,953.65
2019-04-05T03:22:58.614Z,953.69
2019-04-05T03:23:58.601Z,953.69
2019-04-05T03:24:58.520Z,953.68
2019-04-05T03:25:58.447Z,953.63
2019-04-05T03:26:58.392Z,953.64
2019-04-05T03:27:58.336Z,953.65
2019-04-05T03:28:58.312Z,953.65
2019-04-05T03:29:58.251Z,953.71
2019-04-05T03:30:58.163Z,953.72
2019-04-05T03:31:58.110Z,953.78
2019-04-05T03:32:58.052Z,953.78
2019-04-05T03:33:57.998Z,953.81
2019-04-05T03:34:57.994Z,953.78
2019-04-05T03:35:57.882Z,953.79
2019-04-05T03:36:57.827Z,953.76
2019-04-05T03:37:57.772Z,953.72
2019-04-05T03:38:57.715Z,953.73
2019-04-05T03:39:57.693Z,953.73
2019-04-05T03:40:57.601Z,953.71
2019-04-05T03:41:57.549Z,953.76
2019-04-05T03:42:57.489Z,953.76
2019-04-05T03:43:57.465Z,953.84
2019-04-05T03:44:57.380Z,953.88
2019-04-05T03:45:57.326Z,953.89
2019-04-05T03:46:58.020Z,953.90
2019-04-05T03:47:57.209Z,953.93
2019-04-05T03:48:57.152Z,953.95
2019-04-05T03:49:57.095Z,953.94
2019-04-05T03:50:57.082Z,953.96
2019-04-05T03:51:56.983Z,953.96
2019-04-05T03:52:56.940Z,953.96
2019-04-05T03:53:56.955Z,953.97
2019-04-05T03:54:56.812Z,953.99
2019-04-05T03:55:56.755Z,954.00
2019-04-05T03:56:56.704Z,953.97
2019-04-05T03:57:56.679Z,954.00
2019-04-05T03:58:56.589Z,953.94
2019-04-05T03:59:56.567Z,953.99
2019-04-05T04:00:56.483Z,953.99
2019-04-05T04:01:56.424Z,953.97
2019-04-05T04:02:56.365Z,953.97
2019-04-05T04:03:56.320Z,953.96
2019-04-05T04:04:56.305Z,953.94
2019-04-05T04:05:56.201Z,953.93
2019-04-05T04:06:56.138Z,953.91
2019-04-05T04:07:56.117Z,953.92
2019-04-05T04:08:56.030Z,953.84
2019-04-05T04:09:55.971Z,953.82
2019-04-05T04:10:55.919Z,953.86
2019-04-05T04:11:55.860Z,953.84
2019-04-05T04:12:55.844Z,953.85
2019-04-05T04:13:55.744Z,953.87
2019-04-05T04:14:55.688Z,953.87
2019-04-05T04:15:55.635Z,953.88
2019-04-05T04:17:10.912Z,953.85
2019-04-05T04:17:55.563Z,953.81
2019-04-05T04:18:55.468Z,953.82
2019-04-05T04:19:55.409Z,953.82
2019-04-05T04:20:55.353Z,953.82
2019-04-05T04:21:55.297Z,953.86
2019-04-05T04:22:55.281Z,953.85
2019-04-05T04:23:55.184Z,953.88
2019-04-05T04:24:55.130Z,953.90
2019-04-05T04:25:55.070Z,953.92
2019-04-05T04:26:55.017Z,953.89
2019-04-05T04:27:54.991Z,953.85
2019-04-05T04:28:54.950Z,953.82
2019-04-05T04:29:54.855Z,953.87
2019-04-05T04:30:54.791Z,953.84
2019-04-05T04:31:54.736Z,953.84
2019-04-05T04:32:54.677Z,953.88
2019-04-05T04:33:54.654Z,953.90
2019-04-05T04:34:54.568Z,953.93
2019-04-05T04:35:54.518Z,953.94
2019-04-05T04:36:54.454Z,953.98
2019-04-05T04:37:54.398Z,953.94
2019-04-05T04:38:54.392Z,953.97
2019-04-05T04:39:54.286Z,953.95
2019-04-05T04:40:54.229Z,953.93
2019-04-05T04:41:54.171Z,953.94
2019-04-05T04:42:54.119Z,953.93
2019-04-05T04:43:54.094Z,953.93
2019-04-05T04:44:54.044Z,953.98
2019-04-05T04:45:53.951Z,954.00
2019-04-05T04:46:53.895Z,954.01
2019-04-05T04:47:53.831Z,954.06
2019-04-05T04:48:53.776Z,954.08
2019-04-05T04:49:53.755Z,954.09
2019-04-05T04:50:53.666Z,954.12
2019-04-05T04:51:53.610Z,954.15
2019-04-05T04:52:53.551Z,954.12
2019-04-05T04:53:53.496Z,954.12
2019-04-05T04:54:53.473Z,954.13
2019-04-05T04:55:53.385Z,954.13
2019-04-05T04:56:53.331Z,954.14
2019-04-05T04:57:53.308Z,954.16
2019-04-05T04:58:53.215Z,954.14
2019-04-05T04:59:53.160Z,954.14
2019-04-05T05:00:53.131Z,954.12
2019-04-05T05:01:53.088Z,954.16
2019-04-05T05:02:52.991Z,954.07
2019-04-05T05:03:52.939Z,954.08
2019-04-05T05:04:52.877Z,954.04
2019-04-05T05:05:52.822Z,954.04
2019-04-05T05:06:52.794Z,954.06
2019-04-05T05:07:52.708Z,954.06
2019-04-05T05:08:52.651Z,954.08
2019-04-05T05:09:52.652Z,954.09
2019-04-05T05:10:52.547Z,954.06
2019-04-05T05:11:52.487Z,954.03
2019-04-05T05:12:52.426Z,954.04
2019-04-05T05:13:52.379Z,954.11
2019-04-05T05:14:52.350Z,954.11
2019-04-05T05:15:52.258Z,954.12
2019-04-05T05:16:52.237Z,954.17
2019-04-05T05:17:58.595Z,954.16
2019-04-05T05:18:52.124Z,954.18
2019-04-05T05:19:52.040Z,954.14
2019-04-05T05:20:51.977Z,954.14
2019-04-05T05:21:51.963Z,954.15
2019-04-05T05:22:51.866Z,954.16
2019-04-05T05:23:51.811Z,954.14
2019-04-05T05:24:51.754Z,954.17
2019-04-05T05:25:51.697Z,954.21
2019-04-05T05:26:51.684Z,954.21
2019-04-05T05:27:51.582Z,954.23
2019-04-05T05:28:51.529Z,954.28
2019-04-05T05:29:51.470Z,954.27
2019-04-05T05:30:51.413Z,954.26
2019-04-05T05:31:51.401Z,954.28
2019-04-05T05:32:51.307Z,954.30
2019-04-05T05:33:51.252Z,954.27
2019-04-05T05:35:01.350Z,954.28
2019-04-05T05:35:51.133Z,954.28
2019-04-05T05:36:51.108Z,954.28
2019-04-05T05:37:51.020Z,954.31
2019-04-05T05:38:50.996Z,954.28
2019-04-05T05:39:50.910Z,954.27
2019-04-05T05:40:50.853Z,954.26
2019-04-05T05:41:50.795Z,954.24
2019-04-05T05:42:50.762Z,954.22
2019-04-05T05:43:50.683Z,954.23
2019-04-05T05:44:50.628Z,954.31
2019-04-05T05:45:50.570Z,954.32
2019-04-05T05:46:50.516Z,954.36
2019-04-05T05:47:52.250Z,954.38
2019-04-05T05:48:50.402Z,954.40
2019-04-05T05:49:50.347Z,954.41
2019-04-05T05:50:50.292Z,954.35
2019-04-05T05:51:50.235Z,954.36
2019-04-05T05:52:50.211Z,954.32
2019-04-05T05:53:50.152Z,954.30
2019-04-05T05:54:50.063Z,954.31
2019-04-05T05:55:50.047Z,954.33
2019-04-05T05:56:49.954Z,954.31
2019-04-05T05:57:49.900Z,954.33
2019-04-05T05:58:49.872Z,954.31
2019-04-05T05:59:49.785Z,954.34
2019-04-05T06:00:49.727Z,954.35
2019-04-05T06:01:49.702Z,954.32
2019-04-05T06:02:49.622Z,954.34
2019-04-05T06:03:49.556Z,954.36
2019-04-05T06:04:49.501Z,954.32
2019-04-05T06:05:49.476Z,954.35
2019-04-05T06:06:49.388Z,954.31
2019-04-05T06:07:49.365Z,954.32
2019-04-05T06:08:49.276Z,954.30
2019-04-05T06:09:49.220Z,954.32
2019-04-05T06:10:49.169Z,954.30
2019-04-05T06:11:49.149Z,954.29
2019-04-05T06:12:49.050Z,954.30
2019-04-05T06:13:48.994Z,954.33
2019-04-05T06:14:48.939Z,954.35
2019-04-05T06:15:48.886Z,954.36
2019-04-05T06:16:48.861Z,954.33
2019-04-05T06:17:48.771Z,954.34
2019-04-05T06:18:48.760Z,954.32
2019-04-05T06:19:48.658Z,954.32
2019-04-05T06:20:48.604Z,954.36
2019-04-05T06:21:48.582Z,954.33
2019-04-05T06:22:48.490Z,954.35
2019-04-05T06:23:48.433Z,954.36
2019-04-05T06:24:48.377Z,954.35
2019-04-05T06:25:48.325Z,954.34
2019-04-05T06:26:48.345Z,954.31
2019-04-05T06:27:48.208Z,954.34
2019-04-05T06:28:48.287Z,954.31
2019-04-05T06:29:48.094Z,954.27
2019-04-05T06:30:48.050Z,954.35
2019-04-05T06:31:48.027Z,954.36
2019-04-05T06:32:47.928Z,954.39
2019-04-05T06:33:47.875Z,954.38
2019-04-05T06:34:47.812Z,954.37
2019-04-05T06:35:47.760Z,954.36
2019-04-05T06:36:47.733Z,954.33
2019-04-05T06:37:47.684Z,954.37
2019-04-05T06:38:47.590Z,954.35
2019-04-05T06:39:47.536Z,954.32
2019-04-05T06:40:47.476Z,954.36
2019-04-05T06:41:47.428Z,954.37
2019-04-05T06:42:47.406Z,954.33
2019-04-05T06:43:47.312Z,954.31
2019-04-05T06:44:47.258Z,954.32
2019-04-05T06:45:47.270Z,954.30
2019-04-05T06:46:47.148Z,954.28
2019-04-05T06:47:47.084Z,954.28
2019-04-05T06:48:47.063Z,954.28
2019-04-05T06:49:46.973Z,954.28
2019-04-05T06:50:47.563Z,954.26
2019-04-05T06:51:46.862Z,954.24
2019-04-05T06:52:46.835Z,954.29
2019-04-05T06:53:46.750Z,954.25
2019-04-05T06:54:46.720Z,954.24
2019-04-05T06:55:46.634Z,954.28
2019-04-05T06:56:46.585Z,954.29
2019-04-05T06:57:46.535Z,954.28
2019-04-05T06:58:46.585Z,954.30
2019-04-05T06:59:46.445Z,954.30
2019-04-05T07:00:56.985Z,954.35
2019-04-05T07:01:46.299Z,954.31
2019-04-05T07:02:46.242Z,954.32
2019-04-05T07:03:46.191Z,954.32
2019-04-05T07:04:46.163Z,954.31
2019-04-05T07:05:46.150Z,954.32
2019-04-05T07:06:46.025Z,954.33
2019-04-05T07:07:45.967Z,954.34
2019-04-05T07:08:53.652Z,954.33
2019-04-05T07:09:45.882Z,954.34
2019-04-05T07:10:45.795Z,954.36
2019-04-05T07:11:45.738Z,954.38
2019-04-05T07:12:45.722Z,954.39
2019-04-05T07:13:45.629Z,954.37
2019-04-05T07:14:45.599Z,954.32
2019-04-05T07:15:45.514Z,954.36
2019-04-05T07:16:45.458Z,954.35
2019-04-05T07:17:45.402Z,954.34
2019-04-05T07:18:45.344Z,954.33
2019-04-05T07:19:45.326Z,954.32
2019-04-05T07:20:45.233Z,954.35
2019-04-05T07:21:45.176Z,954.34
2019-04-05T07:22:45.121Z,954.31
2019-04-05T07:23:45.067Z,954.31
2019-04-05T07:24:45.047Z,954.32
2019-04-05T07:25:44.963Z,954.31
2019-04-05T07:26:44.898Z,954.32
2019-04-05T07:27:44.840Z,954.34
2019-04-05T07:28:44.786Z,954.30
2019-04-05T07:29:44.773Z,954.33
2019-04-05T07:30:44.674Z,954.32
2019-04-05T07:31:44.617Z,954.30
2019-04-05T07:32:44.562Z,954.33
2019-04-05T07:33:44.547Z,954.30
2019-04-05T07:34:44.451Z,954.33
2019-04-05T07:35:44.393Z,954.34
2019-04-05T07:36:44.338Z,954.35
2019-04-05T07:37:44.285Z,954.36
2019-04-05T07:38:44.282Z,954.36
2019-04-05T07:39:44.168Z,954.39
2019-04-05T07:40:44.113Z,954.34
2019-04-05T07:41:44.063Z,954.34
2019-04-05T07:42:44.000Z,954.32
2019-04-05T07:43:43.976Z,954.35
2019-04-05T07:44:43.894Z,954.35
2019-04-05T07:45:45.968Z,954.37
2019-04-05T07:46:46.432Z,954.40
2019-04-05T07:47:43.722Z,954.41
2019-04-05T07:48:45.006Z,954.42
2019-04-05T07:49:43.652Z,954.45
2019-04-05T07:50:43.586Z,954.45
2019-04-05T07:51:43.498Z,954.47
2019-04-05T07:52:43.445Z,954.49
2019-04-05T07:53:43.391Z,954.48
2019-04-05T07:54:43.327Z,954.51
2019-04-05T07:55:43.304Z,954.49
2019-04-05T07:56:46.034Z,954.50
2019-04-05T07:57:43.164Z,954.48
2019-04-05T07:58:43.131Z,954.49
2019-04-05T07:59:43.049Z,954.50
2019-04-05T08:00:43.029Z,954.53
2019-04-05T08:01:42.939Z,954.48
2019-04-05T08:02:42.913Z,954.50
2019-04-05T08:03:42.825Z,954.49
2019-04-05T08:04:42.772Z,954.51
2019-04-05T08:05:42.717Z,954.50
2019-04-05T08:06:42.698Z,954.49
2019-04-05T08:07:42.602Z,954.51
2019-04-05T08:08:42.550Z,954.48
2019-04-05T08:09:42.494Z,954.54
2019-04-05T08:10:42.435Z,954.48
2019-04-05T08:11:42.418Z,954.50
2019-04-05T08:12:42.322Z,954.49
2019-04-05T08:13:42.267Z,954.51
2019-04-05T08:14:42.211Z,954.53
2019-04-05T08:15:42.155Z,954.55
2019-04-05T08:16:42.166Z,954.54
2019-04-05T08:17:42.046Z,954.54
2019-04-05T08:18:42.019Z,954.55
2019-04-05T08:19:41.937Z,954.52
2019-04-05T08:20:41.876Z,954.55
2019-04-05T08:21:41.820Z,954.55
2019-04-05T08:22:41.797Z,954.56
2019-04-05T08:23:41.709Z,954.60
2019-04-05T08:24:41.653Z,954.56
2019-04-05T08:25:41.599Z,954.53
2019-04-05T08:26:41.542Z,954.57
2019-04-05T08:27:41.518Z,954.58
2019-04-05T08:28:41.437Z,954.59
2019-04-05T08:29:41.377Z,954.60
2019-04-05T08:30:41.319Z,954.62
2019-04-05T08:31:41.263Z,954.62
2019-04-05T08:32:41.238Z,954.59
2019-04-05T08:33:41.191Z,954.58
2019-04-05T08:34:41.093Z,954.58
2019-04-05T08:35:41.039Z,954.57
2019-04-05T08:36:40.982Z,954.57
2019-04-05T08:37:40.928Z,954.54
2019-04-05T08:38:40.902Z,954.57
2019-04-05T08:39:40.821Z,954.58
2019-04-05T08:40:40.767Z,954.56
2019-04-05T08:41:40.715Z,954.57
2019-04-05T08:42:40.650Z,954.61
2019-04-05T08:43:40.622Z,954.60
2019-04-05T08:44:40.541Z,954.63
2019-04-05T08:45:40.482Z,954.64
2019-04-05T08:46:40.458Z,954.66
2019-04-05T08:47:40.426Z,954.64
2019-04-05T08:48:40.312Z,954.68
2019-04-05T08:49:40.258Z,954.67
2019-04-05T08:50:40.200Z,954.71
2019-04-05T08:51:40.183Z,954.70
2019-04-05T08:52:40.096Z,954.71
2019-04-05T08:53:40.035Z,954.70
2019-04-05T08:54:40.101Z,954.69
2019-04-05T08:55:39.927Z,954.72
2019-04-05T08:56:39.872Z,954.72
2019-04-05T08:57:39.815Z,954.77
2019-04-05T08:58:39.759Z,954.78
2019-04-05T08:59:39.746Z,954.80
2019-04-05T09:00:39.644Z,954.85
2019-04-05T09:01:39.589Z,954.87
2019-04-05T09:02:39.545Z,954.85
2019-04-05T09:03:39.479Z,954.84
2019-04-05T09:04:39.458Z,954.87
2019-04-05T09:05:39.395Z,954.87
2019-04-05T09:06:39.324Z,954.90
2019-04-05T09:07:39.257Z,954.92
2019-04-05T09:08:39.199Z,954.91
2019-04-05T09:09:39.180Z,954.89
2019-04-05T09:10:39.089Z,954.89
2019-04-05T09:11:39.062Z,954.90
2019-04-05T09:12:38.978Z,954.90
2019-04-05T09:13:38.922Z,954.91
2019-04-05T09:14:38.864Z,954.91
2019-04-05T09:15:38.844Z,954.89
2019-04-05T09:16:38.755Z,954.87
2019-04-05T09:17:38.748Z,954.86
2019-04-05T09:18:38.649Z,954.90
2019-04-05T09:19:38.587Z,954.87
2019-04-05T09:20:38.530Z,954.91
2019-04-05T09:21:40.420Z,954.93
2019-04-05T09:22:38.462Z,954.91
2019-04-05T09:23:38.366Z,954.94
2019-04-05T09:24:38.311Z,954.93
2019-04-05T09:25:38.260Z,954.92
2019-04-05T09:26:38.202Z,954.92
2019-04-05T09:27:38.174Z,954.92
2019-04-05T09:28:38.087Z,954.89
2019-04-05T09:29:38.066Z,954.91
2019-04-05T09:30:38.012Z,954.91
2019-04-05T09:31:37.921Z,954.91
2019-04-05T09:32:37.871Z,954.90
2019-04-05T09:33:37.810Z,954.91
2019-04-05T09:34:37.761Z,954.90
2019-04-05T09:35:37.743Z,954.91
2019-04-05T09:36:37.689Z,954.92
2019-04-05T09:37:37.596Z,954.93
2019-04-05T09:38:37.566Z,954.95
2019-04-05T09:39:37.477Z,954.96
2019-04-05T09:40:37.425Z,955.02
2019-04-05T09:41:37.369Z,955.01
2019-04-05T09:42:37.345Z,955.04
2019-04-05T09:43:37.260Z,955.06
2019-04-05T09:44:37.206Z,955.07
2019-04-05T09:45:37.183Z,955.06
2019-04-05T09:46:46.869Z,955.08
2019-04-05T09:47:37.038Z,955.09
2019-04-05T09:48:37.013Z,955.12
2019-04-05T09:49:37.396Z,955.06
2019-04-05T09:50:36.871Z,955.05
2019-04-05T09:51:36.819Z,955.05
2019-04-05T09:52:36.763Z,955.03
2019-04-05T09:53:36.740Z,955.10
2019-04-05T09:54:36.653Z,955.09
2019-04-05T09:55:36.598Z,955.11
2019-04-05T09:56:36.544Z,955.13
2019-04-05T09:57:36.519Z,955.13
2019-04-05T09:58:36.433Z,955.16
2019-04-05T09:59:36.377Z,955.18
2019-04-05T10:00:36.340Z,955.20
2019-04-05T10:01:36.304Z,955.20
2019-04-05T10:02:36.217Z,955.21
2019-04-05T10:03:36.159Z,955.18
2019-04-05T10:04:36.105Z,955.17
2019-04-05T10:05:36.081Z,955.16
2019-04-05T10:06:35.997Z,955.15
2019-04-05T10:07:35.941Z,955.17
2019-04-05T10:08:35.926Z,955.14
2019-04-05T10:09:35.836Z,955.16
2019-04-05T10:10:35.771Z,955.14
2019-04-05T10:11:35.719Z,955.18
2019-04-05T10:12:35.663Z,955.15
2019-04-05T10:13:35.649Z,955.16
2019-04-05T10:14:35.554Z,955.16
2019-04-05T10:15:35.500Z,955.12
2019-04-05T10:16:35.503Z,955.10
2019-04-05T10:17:35.390Z,955.10
2019-04-05T10:18:35.374Z,955.13
2019-04-05T10:19:35.283Z,955.12
2019-04-05T10:20:35.229Z,955.11
2019-04-05T10:21:35.173Z,955.11
2019-04-05T10:22:35.150Z,955.08
2019-04-05T10:23:35.061Z,955.08
2019-04-05T10:24:35.004Z,955.10
2019-04-05T10:25:34.951Z,955.09
2019-04-05T10:26:34.896Z,955.12
2019-04-05T10:27:34.874Z,955.14
2019-04-05T10:28:34.786Z,955.08
2019-04-05T10:29:34.730Z,955.12
2019-04-05T10:30:34.719Z,955.10
2019-04-05T10:31:34.622Z,955.08
2019-04-05T10:32:34.573Z,955.09
2019-04-05T10:33:34.515Z,955.08
2019-04-05T10:34:34.456Z,955.06
2019-04-05T10:35:34.445Z,955.06
2019-04-05T10:36:34.348Z,955.05
2019-04-05T10:37:34.296Z,955.03
2019-04-05T10:38:34.237Z,955.03
2019-04-05T10:39:34.184Z,955.04
2019-04-05T10:40:34.163Z,955.03
2019-04-05T10:41:34.075Z,955.03
2019-04-05T10:42:34.025Z,955.02
2019-04-05T10:43:33.964Z,955.02
2019-04-05T10:44:33.942Z,955.04
2019-04-05T10:45:33.895Z,955.00
2019-04-05T10:46:33.800Z,954.99
2019-04-05T10:47:33.746Z,955.00
2019-04-05T10:48:35.447Z,955.02
2019-04-05T10:49:33.638Z,954.99
2019-04-05T10:50:33.614Z,955.00
2019-04-05T10:51:33.560Z,955.04
2019-04-05T10:52:33.478Z,955.02
2019-04-05T10:53:33.446Z,954.98
2019-04-05T10:54:33.364Z,955.00
2019-04-05T10:55:33.344Z,955.00
2019-04-05T10:56:33.254Z,954.99
2019-04-05T10:57:33.204Z,954.96
2019-04-05T10:58:33.144Z,954.95
2019-04-05T10:59:33.115Z,954.95
2019-04-05T11:00:33.040Z,954.95
2019-04-05T11:01:32.981Z,954.95
2019-04-05T11:02:32.938Z,954.96
2019-04-05T11:03:32.873Z,954.97
2019-04-05T11:04:32.852Z,954.99
2019-04-05T11:05:32.772Z,954.97
2019-04-05T11:06:32.710Z,954.98
2019-04-05T11:07:34.916Z,955.01
2019-04-05T11:08:32.600Z,954.99
2019-04-05T11:09:32.547Z,954.98
2019-04-05T11:10:32.491Z,954.95
2019-04-05T11:11:32.481Z,954.92
2019-04-05T11:12:32.387Z,954.96
2019-04-05T11:13:32.387Z,954.96
2019-04-05T11:14:32.274Z,954.89
2019-04-05T11:15:32.221Z,954.91
2019-04-05T11:16:32.209Z,954.92
2019-04-05T11:17:32.113Z,954.91
2019-04-05T11:18:32.814Z,954.97
2019-04-05T11:19:32.329Z,954.91
2019-04-05T11:20:31.953Z,954.88
2019-04-05T11:21:31.931Z,954.90
2019-04-05T11:22:31.840Z,954.86
2019-04-05T11:23:31.821Z,954.88
2019-04-05T11:24:31.735Z,954.81
2019-04-05T11:25:31.680Z,954.87
2019-04-05T11:26:31.658Z,954.90
2019-04-05T11:27:31.570Z,954.92
2019-04-05T11:28:31.563Z,954.91
2019-04-05T11:29:31.463Z,954.91
2019-04-05T11:30:31.440Z,954.89
2019-04-05T11:31:31.355Z,954.85
2019-04-05T11:32:31.300Z,954.83
2019-04-05T11:33:31.270Z,954.78
2019-04-05T11:34:31.226Z,954.77
2019-04-05T11:35:31.138Z,954.76
2019-04-05T11:36:31.082Z,954.76
2019-04-05T11:37:31.031Z,954.75
2019-04-05T11:38:31.009Z,954.76
2019-04-05T11:39:30.926Z,954.80
2019-04-05T11:40:30.867Z,954.79
2019-04-05T11:41:30.813Z,954.80
2019-04-05T11:42:32.950Z,954.81
2019-04-05T11:43:31.295Z,954.80
2019-04-05T11:44:30.653Z,954.83
2019-04-05T11:45:30.599Z,954.81
2019-04-05T11:46:30.547Z,954.79
2019-04-05T11:47:30.494Z,954.80
2019-04-05T11:48:31.025Z,954.72
2019-04-05T11:49:30.418Z,954.72
2019-04-05T11:50:34.662Z,954.73
2019-04-05T11:51:30.280Z,954.73
2019-04-05T11:52:30.222Z,954.73
2019-04-05T11:53:30.166Z,954.77
2019-04-05T11:54:30.144Z,954.71
2019-04-05T11:55:30.088Z,954.78
2019-04-05T11:56:30.006Z,954.81
2019-04-05T11:57:29.950Z,954.81
2019-04-05T11:58:29.900Z,954.79
2019-04-05T11:59:29.846Z,954.78
2019-04-05T12:00:29.827Z,954.78
2019-04-05T12:01:29.752Z,954.80
2019-04-05T12:02:29.683Z,954.79
2019-04-05T12:03:29.632Z,954.77
2019-04-05T12:04:29.584Z,954.74
2019-04-05T12:05:29.556Z,954.71
2019-04-05T12:06:29.513Z,954.69
2019-04-05T12:07:29.875Z,954.72
2019-04-05T12:08:31.505Z,954.71
2019-04-05T12:09:29.307Z,954.72
2019-04-05T12:10:31.857Z,954.76
2019-04-05T12:11:29.268Z,954.76
2019-04-05T12:12:29.164Z,954.75
2019-04-05T12:13:29.144Z,954.75
2019-04-05T12:14:30.399Z,954.73
2019-04-05T12:15:30.878Z,954.72
2019-04-05T12:16:32.055Z,954.66
2019-04-05T12:17:28.972Z,954.71
2019-04-05T12:18:32.553Z,954.69
2019-04-05T12:19:28.789Z,954.70
2019-04-05T12:20:32.751Z,954.72
2019-04-05T12:21:28.706Z,954.73
2019-04-05T12:22:28.652Z,954.72
2019-04-05T12:23:32.386Z,954.68
2019-04-05T12:24:28.509Z,954.67
2019-04-05T12:25:28.456Z,954.65
2019-04-05T12:26:28.443Z,954.66
2019-04-05T12:27:28.350Z,954.64